Página principal
METAR-TAF:

METAR-TAF

Aeroportos :

Xian, China

Aeroporto Internacional de Xi'an Xianyang

latitude: 34-26N, longitude: 108-45E, altura: 479 m

Observação actual do tempo

O boletim foi feito há 24 minutos, às 02:00 UTC
Vento 4 kt com direcção variável
Temperatura 19°C
Humidade 43%
Pressão 1019 hPa
Visibilidade 10 km ou mais
sem nuvens abaixo de 1500 metros e sem cumulonimbus

METAR: ZLXY 280200Z VRB02MPS CAVOK 19/06 Q1019 NOSIG

Hora: 10:24 (02:24 UTC)

Previsão

O boletim foi feito há 7 horas e 15 minutos, às 19:09 UTC
Previsão válida de 28 às 00 UTC a 28 às 24 UTC
Vento 6 kt de oeste
Visibilidade: 4000 m
bruma

TAF: ZLXY 271909Z 2800/2824 26003MPS 4000 HZ NSC TX27/2808Z TN09/2821Z

Observações e previsões do tempo de mais de 4000 aeroportos (mensagens METAR e TAF).

As estações disponíveis são os pontos amarelos e vermelhos sobre o mapa.

Mova o rato sobre o mapa para ver o nome da estação.

Depois clique no ponto para visualizar as observações e previsões meteorológicas.

Para alterar o mapa : clique nos botões verdes com uma cruz preta para aumentar o zoom; no botão verde com uma pitada de zoom; ou nas setas verdes para mapas adjacentes.


METAR-TAF: